createdAt,value
2019-04-23T00:00:54.505Z,58.87
2019-04-23T00:03:30.221Z,67.13
2019-04-23T00:06:07.165Z,70.43
2019-04-23T00:08:36.225Z,68.20
2019-04-23T00:11:05.848Z,79.60
2019-04-23T00:13:37.428Z,65.33
2019-04-23T00:16:14.080Z,85.63
2019-04-23T00:21:23.574Z,66.47
2019-04-23T00:23:53.340Z,70.73
2019-04-23T00:29:00.997Z,78.30
2019-04-23T00:31:31.655Z,87.97
2019-04-23T00:34:04.162Z,67.53
2019-04-23T00:36:45.968Z,89.40
2019-04-23T00:39:06.308Z,77.73
2019-04-23T00:41:39.072Z,78.87
2019-04-23T00:44:20.758Z,69.93
2019-04-23T00:46:40.107Z,70.70
2019-04-23T00:49:15.626Z,81.63
2019-04-23T00:51:42.478Z,74.80
2019-04-23T00:54:20.754Z,78.20
2019-04-23T00:59:24.503Z,81.97
2019-04-23T01:04:27.548Z,77.47
2019-04-23T01:06:58.047Z,74.40
2019-04-23T01:09:38.665Z,81.53
2019-04-23T01:12:06.046Z,70.10
2019-04-23T01:14:34.652Z,72.23
2019-04-23T01:17:17.277Z,65.97
2019-04-23T01:19:51.799Z,76.10
2019-04-23T01:22:02.164Z,70.27
2019-04-23T01:24:52.282Z,73.33
2019-04-23T01:28:04.417Z,72.80
2019-04-23T01:30:19.741Z,76.13
2019-04-23T01:32:54.646Z,80.67
2019-04-23T01:35:56.946Z,77.30
2019-04-23T01:38:11.917Z,83.53
2019-04-23T01:40:36.539Z,84.83
2019-04-23T01:43:05.495Z,95.23
2019-04-23T01:45:31.037Z,90.93
2019-04-23T01:48:04.654Z,87.53
2019-04-23T01:50:43.448Z,90.10
2019-04-23T01:55:47.280Z,110.77
2019-04-23T02:03:24.554Z,121.10
2019-04-23T02:08:26.312Z,101.03
2019-04-23T02:11:11.479Z,95.43
2019-04-23T02:13:36.898Z,93.87
2019-04-23T02:16:05.173Z,89.43
2019-04-23T02:18:37.319Z,129.30
2019-04-23T02:21:10.615Z,112.27
2019-04-23T02:23:43.900Z,115.13
2019-04-23T02:26:24.385Z,91.83
2019-04-23T02:29:14.684Z,76.03
2019-04-23T02:31:53.095Z,142.10
2019-04-23T02:34:00.483Z,118.33
2019-04-23T02:44:19.825Z,94.33
2019-04-23T02:46:43.815Z,99.70
2019-04-23T02:49:18.202Z,164.47
2019-04-23T02:59:30.787Z,110.07
2019-04-23T03:04:47.758Z,118.57
2019-04-23T03:07:03.354Z,97.27
2019-04-23T03:09:36.438Z,114.60
2019-04-23T03:12:08.270Z,107.13
2019-04-23T03:14:46.264Z,98.70
2019-04-23T03:17:13.262Z,128.67
2019-04-23T03:19:59.368Z,123.00
2019-04-23T03:22:37.790Z,106.17
2019-04-23T03:27:37.245Z,147.67
2019-04-23T03:30:16.719Z,92.73
2019-04-23T03:33:08.428Z,117.80
2019-04-23T03:35:19.459Z,115.07
2019-04-23T03:37:46.334Z,117.20
2019-04-23T03:43:02.356Z,111.37
2019-04-23T03:45:46.500Z,94.43
2019-04-23T03:47:56.237Z,97.57
2019-04-23T03:52:57.273Z,115.87
2019-04-23T03:55:37.413Z,100.13
2019-04-23T03:58:14.360Z,91.30
2019-04-23T04:03:27.755Z,124.00
2019-04-23T04:11:09.905Z,94.30
2019-04-23T04:13:30.403Z,110.67
2019-04-23T04:18:38.523Z,115.30
2019-04-23T04:23:39.586Z,115.50
2019-04-23T04:26:05.247Z,124.83
2019-04-23T04:28:51.460Z,108.53
2019-04-23T04:31:05.814Z,94.20
2019-04-23T04:34:03.510Z,93.57
2019-04-23T04:36:20.867Z,92.80
2019-04-23T04:41:40.015Z,117.13
2019-04-23T04:44:23.145Z,110.30
2019-04-23T04:48:55.762Z,136.47
2019-04-23T04:51:37.683Z,106.13
2019-04-23T05:01:28.572Z,145.67
2019-04-23T05:04:14.589Z,172.47
2019-04-23T05:06:43.839Z,123.53
2019-04-23T05:09:34.828Z,128.40
2019-04-23T05:11:54.133Z,129.53
2019-04-23T05:14:13.081Z,134.23
2019-04-23T05:19:29.036Z,131.63
2019-04-23T05:21:54.463Z,121.37
2019-04-23T05:24:21.776Z,128.67
2019-04-23T05:26:48.212Z,119.27
2019-04-23T05:29:20.049Z,108.03
2019-04-23T05:31:54.306Z,140.57
2019-04-23T05:34:27.302Z,121.53
2019-04-23T05:37:00.127Z,113.80
2019-04-23T05:39:36.845Z,116.70
2019-04-23T05:42:04.312Z,102.80
2019-04-23T05:47:17.190Z,103.33
2019-04-23T05:49:47.583Z,103.00
2019-04-23T05:52:19.052Z,101.42
2019-04-23T05:54:49.928Z,100.10
2019-04-23T05:57:14.337Z,98.97
2019-04-23T06:02:26.161Z,97.97
2019-04-23T06:05:02.114Z,111.52
2019-04-23T06:07:35.891Z,104.20
2019-04-23T06:12:31.976Z,104.38
2019-04-23T06:15:05.146Z,98.00
2019-04-23T06:17:43.101Z,105.10
2019-04-23T06:20:10.254Z,88.05
2019-04-23T06:22:42.380Z,75.80
2019-04-23T06:25:35.911Z,74.40
2019-04-23T06:27:57.444Z,75.35
2019-04-23T06:30:26.644Z,73.30
2019-04-23T06:33:02.369Z,65.22
2019-04-23T06:35:32.021Z,53.98
2019-04-23T06:38:34.424Z,48.28
2019-04-23T06:40:38.220Z,52.70
2019-04-23T06:43:11.710Z,42.45
2019-04-23T06:46:01.375Z,33.28
2019-04-23T06:53:21.371Z,30.10
2019-04-23T06:55:59.864Z,30.25
2019-04-23T07:01:00.740Z,33.00
2019-04-23T07:11:23.470Z,35.60
2019-04-23T07:16:14.670Z,32.73
2019-04-23T07:18:46.900Z,36.13
2019-04-23T07:26:33.283Z,27.80
2019-04-23T07:34:01.389Z,23.87
2019-04-23T07:36:38.247Z,47.43
2019-04-23T07:39:06.045Z,28.45
2019-04-23T07:42:03.295Z,27.95
2019-04-23T07:47:15.786Z,31.82
2019-04-23T07:49:43.817Z,27.98
2019-04-23T07:52:27.658Z,30.45
2019-04-23T07:57:13.469Z,31.02
2019-04-23T07:59:48.593Z,27.07
2019-04-23T08:02:24.188Z,30.48
2019-04-23T08:07:28.252Z,36.50
2019-04-23T08:10:02.314Z,28.02
2019-04-23T08:12:42.459Z,30.43
2019-04-23T08:15:18.186Z,27.45
2019-04-23T08:17:42.253Z,27.42
2019-04-23T08:20:19.402Z,32.78
2019-04-23T08:22:45.803Z,31.93
2019-04-23T08:28:12.033Z,27.17
2019-04-23T08:30:32.692Z,34.43
2019-04-23T08:33:24.068Z,29.15
2019-04-23T08:35:48.675Z,33.45
2019-04-23T08:38:26.608Z,31.95
2019-04-23T08:41:06.105Z,29.40
2019-04-23T08:43:41.079Z,28.00
2019-04-23T08:46:21.189Z,29.40
2019-04-23T08:48:58.677Z,29.35
2019-04-23T08:54:11.740Z,35.10
2019-04-23T08:56:40.660Z,29.70
2019-04-23T08:59:25.173Z,30.75
2019-04-23T09:05:21.160Z,30.62
2019-04-23T09:37:56.073Z,27.30
2019-04-23T12:57:29.763Z,26.77
2019-04-23T14:14:16.748Z,27.42
2019-04-23T14:19:13.003Z,30.92
2019-04-23T14:21:44.570Z,25.20
2019-04-23T14:24:26.820Z,25.40
2019-04-23T14:26:46.327Z,32.05
2019-04-23T14:29:31.788Z,30.97
2019-04-23T14:32:04.549Z,26.15
2019-04-23T14:34:24.911Z,22.67
2019-04-23T14:37:09.216Z,23.02
2019-04-23T14:39:40.781Z,36.15
2019-04-23T14:42:33.663Z,33.73
2019-04-23T14:44:52.441Z,26.20
2019-04-23T14:50:14.629Z,25.15
2019-04-23T14:52:30.899Z,27.58
2019-04-23T14:57:45.331Z,22.77
2019-04-23T15:00:08.799Z,30.40
2019-04-23T15:02:48.269Z,30.23
2019-04-23T15:05:17.354Z,30.95
2019-04-23T15:07:46.251Z,26.17
2019-04-23T15:10:24.808Z,30.00
2019-04-23T15:12:53.922Z,30.40
2019-04-23T15:15:19.673Z,26.33
2019-04-23T15:18:01.824Z,28.77
2019-04-23T15:20:30.648Z,26.15
2019-04-23T15:30:38.781Z,29.18
2019-04-23T15:33:23.183Z,26.73
2019-04-23T15:35:57.879Z,39.53
2019-04-23T15:39:11.697Z,32.15
2019-04-23T15:40:56.680Z,29.30
2019-04-23T15:43:57.157Z,28.00
2019-04-23T15:50:07.394Z,36.10
2019-04-23T15:52:33.333Z,35.95
2019-04-23T15:55:05.556Z,36.80
2019-04-23T16:00:13.231Z,56.05
2019-04-23T16:02:23.980Z,31.15
2019-04-23T16:04:56.153Z,39.70
2019-04-23T16:07:50.515Z,40.63
2019-04-23T16:10:37.760Z,37.73
2019-04-23T16:13:30.963Z,45.10
2019-04-23T16:15:54.759Z,52.48
2019-04-23T16:21:41.134Z,56.58
2019-04-23T16:24:07.208Z,72.85
2019-04-23T16:32:52.609Z,109.67
2019-04-23T16:39:44.053Z,130.40
2019-04-23T17:28:18.316Z,108.15
2019-04-23T17:34:54.660Z,158.05
2019-04-23T17:38:09.128Z,181.23
2019-04-23T17:42:09.208Z,138.70
2019-04-23T17:45:30.968Z,147.63
2019-04-23T17:48:34.985Z,151.70
2019-04-23T17:51:28.143Z,173.70
2019-04-23T17:54:26.927Z,176.03
2019-04-23T17:57:28.416Z,173.80
2019-04-23T18:05:18.263Z,143.27
2019-04-23T18:25:02.738Z,108.60
2019-04-23T18:27:23.610Z,234.37
2019-04-23T18:30:07.944Z,109.83
2019-04-23T18:32:44.770Z,101.70
2019-04-23T18:40:19.993Z,112.87
2019-04-23T18:43:21.543Z,104.57
2019-04-23T18:45:39.585Z,77.50
2019-04-23T18:48:38.841Z,71.63
2019-04-23T18:53:45.389Z,70.30
2019-04-23T18:56:12.683Z,62.07
2019-04-23T19:06:29.625Z,31.83
2019-04-23T19:09:32.467Z,27.13
2019-04-23T19:12:03.460Z,21.03
2019-04-23T19:14:35.300Z,19.87
2019-04-23T19:19:33.595Z,22.97
2019-04-23T19:24:31.742Z,22.90
2019-04-23T19:29:44.382Z,31.37
2019-04-23T19:32:00.592Z,27.93
2019-04-23T19:34:43.889Z,19.57
2019-04-23T19:37:24.179Z,19.00
2019-04-23T19:42:18.027Z,15.30
2019-04-23T19:44:47.477Z,17.73
2019-04-23T19:49:58.923Z,14.23
2019-04-23T19:52:52.094Z,19.77
2019-04-23T19:55:11.461Z,19.75
2019-04-23T19:57:56.555Z,17.40
2019-04-23T20:00:01.214Z,20.27
2019-04-23T20:03:01.596Z,19.10
2019-04-23T20:05:17.197Z,17.63
2019-04-23T20:07:56.502Z,18.67
2019-04-23T20:10:17.502Z,20.77
2019-04-23T20:12:46.035Z,14.67
2019-04-23T20:15:30.926Z,18.43
2019-04-23T20:18:05.328Z,23.63
2019-04-23T20:20:35.425Z,19.65
2019-04-23T20:22:55.469Z,21.67
2019-04-23T20:26:03.201Z,16.55
2019-04-23T20:28:33.659Z,15.00
2019-04-23T20:31:16.468Z,16.70
2019-04-23T20:36:12.160Z,24.60
2019-04-23T20:38:41.088Z,17.30
2019-04-23T20:41:11.839Z,17.87
2019-04-23T20:43:50.457Z,18.17
2019-04-23T20:46:14.394Z,17.20
2019-04-23T20:48:58.987Z,22.37
2019-04-23T20:51:24.528Z,17.60
2019-04-23T20:53:59.793Z,19.97
2019-04-23T20:56:34.425Z,19.77
2019-04-23T20:58:59.697Z,18.23
2019-04-23T21:01:41.830Z,21.23
2019-04-23T21:04:18.684Z,14.00
2019-04-23T21:06:46.746Z,21.57
2019-04-23T21:11:53.091Z,13.30
2019-04-23T21:14:31.317Z,13.00
2019-04-23T21:19:25.118Z,17.40
2019-04-23T21:22:13.235Z,14.40
2019-04-23T21:24:42.327Z,14.77
2019-04-23T21:27:38.558Z,12.90
2019-04-23T21:35:07.996Z,15.10
2019-04-23T21:37:51.249Z,14.23
2019-04-23T21:40:40.578Z,9.97
2019-04-23T21:45:30.558Z,17.60
2019-04-23T21:50:36.731Z,18.20
2019-04-23T21:52:59.492Z,17.63
2019-04-23T21:55:48.617Z,27.20
2019-04-23T22:00:51.946Z,27.90
2019-04-23T22:03:24.620Z,14.23
2019-04-23T22:08:39.211Z,15.43
2019-04-23T22:11:32.721Z,17.17
2019-04-23T22:13:53.841Z,15.70
2019-04-23T22:16:14.694Z,18.77
2019-04-23T22:18:58.784Z,17.00
2019-04-23T22:21:28.934Z,19.87
2019-04-23T22:23:58.244Z,14.07
2019-04-23T22:26:28.456Z,18.40
2019-04-23T22:31:29.107Z,16.10
2019-04-23T22:36:29.387Z,20.30
2019-04-23T22:39:07.844Z,22.63
2019-04-23T22:44:12.509Z,16.37
2019-04-23T22:46:53.267Z,21.53
2019-04-23T22:49:22.913Z,17.20
2019-04-23T22:54:13.889Z,22.20
2019-04-23T22:56:59.232Z,22.97
2019-04-23T23:01:59.144Z,24.00
2019-04-23T23:04:28.633Z,23.17
2019-04-23T23:07:01.639Z,22.63
2019-04-23T23:09:49.243Z,28.97
2019-04-23T23:12:02.617Z,24.30
2019-04-23T23:14:35.180Z,20.97
2019-04-23T23:17:11.544Z,29.53
2019-04-23T23:19:54.350Z,25.10
2019-04-23T23:22:27.786Z,28.90
2019-04-23T23:24:48.399Z,31.80
2019-04-23T23:27:15.150Z,24.27
2019-04-23T23:30:01.194Z,27.07
2019-04-23T23:32:23.191Z,31.27
2019-04-23T23:35:08.932Z,31.40
2019-04-23T23:37:28.439Z,29.90
2019-04-23T23:40:04.976Z,33.67
2019-04-23T23:42:35.120Z,32.10
2019-04-23T23:45:12.833Z,29.40
2019-04-23T23:47:38.108Z,30.97
2019-04-23T23:50:25.529Z,22.70
2019-04-23T23:52:51.765Z,27.27
2019-04-23T23:55:15.784Z,24.67
2019-04-23T23:57:50.961Z,22.63
